Time;durP1;ratioP1;P1;durP2;ratioP2;P2;SDS_P1;SDS_P2;PMS_P1;PMS_P2;Temp;Humidity;BMP_temperature;BMP_pressure;BME280_temperature;BME280_humidity;BME280_pressure;Samples;Min_cycle;Max_cycle;Signal;HPM_P1;HPM_P2
2022/06/30 00:00:05;;;;;;;9.60;3.63;;;22.20;60.00;;;;;;9195380;19;20456;-63
2022/06/30 00:03:17;;;;;;;5.15;3.28;;;22.20;60.00;;;;;;9194866;19;20027;-65
2022/06/30 00:06:26;;;;;;;6.65;3.85;;;22.20;60.10;;;;;;9194277;19;20090;-64
2022/06/30 00:09:31;;;;;;;8.00;3.40;;;22.10;60.00;;;;;;9197266;19;20037;-65
2022/06/30 00:12:36;;;;;;;7.00;3.17;;;22.10;60.00;;;;;;9194255;19;20018;-64
2022/06/30 00:15:41;;;;;;;3.65;3.10;;;22.10;60.10;;;;;;9191596;19;20090;-65
2022/06/30 00:18:51;;;;;;;5.75;3.42;;;22.00;60.10;;;;;;9192146;19;20026;-64
2022/06/30 00:21:56;;;;;;;5.70;3.53;;;22.00;60.20;;;;;;9191599;19;20014;-64
2022/06/30 00:25:01;;;;;;;5.28;3.75;;;22.00;60.10;;;;;;9182604;19;20112;-64
2022/06/30 00:28:06;;;;;;;8.77;3.53;;;21.90;60.10;;;;;;9185757;19;20046;-65
2022/06/30 00:31:11;;;;;;;5.20;3.90;;;21.90;60.20;;;;;;9184876;19;20019;-64
2022/06/30 00:34:19;;;;;;;4.57;3.60;;;21.90;60.30;;;;;;9185970;19;20887;-64
2022/06/30 00:37:24;;;;;;;5.72;3.92;;;21.80;60.30;;;;;;9184775;19;20048;-64
2022/06/30 00:40:30;;;;;;;7.63;4.00;;;21.80;60.30;;;;;;9184542;19;20026;-64
2022/06/30 00:43:44;;;;;;;8.15;4.43;;;21.70;60.40;;;;;;9185023;19;20514;-64
2022/06/30 00:46:49;;;;;;;8.93;4.60;;;21.70;60.50;;;;;;9184383;19;20022;-64
2022/06/30 00:49:57;;;;;;;10.20;4.47;;;21.60;60.40;;;;;;9186008;19;20010;-65
2022/06/30 00:53:05;;;;;;;7.75;4.40;;;21.60;60.60;;;;;;9185239;19;20022;-64
2022/06/30 00:56:11;;;;;;;5.68;4.15;;;21.60;60.60;;;;;;9180880;19;20033;-65
2022/06/30 00:59:19;;;;;;;4.32;3.45;;;21.60;60.70;;;;;;9184434;19;20010;-64
2022/06/30 01:02:25;;;;;;;5.97;4.07;;;21.50;60.70;;;;;;9184169;19;20010;-64
2022/06/30 01:05:33;;;;;;;13.15;3.97;;;21.50;60.70;;;;;;9183220;19;20026;-64
2022/06/30 01:08:38;;;;;;;7.80;4.10;;;21.40;60.80;;;;;;9184921;19;20022;-64
2022/06/30 01:15:03;;;;;;;4.60;3.95;;;21.40;60.90;;;;;;9183725;19;20019;-64
2022/06/30 01:18:08;;;;;;;5.93;3.85;;;21.40;60.90;;;;;;9179933;19;20026;-64
2022/06/30 01:21:16;;;;;;;8.48;3.60;;;21.30;61.00;;;;;;9183120;19;20043;-63
2022/06/30 01:24:23;;;;;;;4.78;3.53;;;21.30;61.20;;;;;;9184399;19;20026;-64
2022/06/30 01:27:28;;;;;;;4.47;3.40;;;21.30;61.10;;;;;;9184133;19;20010;-64
2022/06/30 01:30:33;;;;;;;5.97;3.90;;;21.20;61.20;;;;;;9183089;19;20006;-64
2022/06/30 01:33:42;;;;;;;4.93;3.92;;;21.20;61.20;;;;;;9182840;19;20006;-64
2022/06/30 01:36:47;;;;;;;6.40;3.53;;;21.20;61.30;;;;;;9180375;19;20015;-63
2022/06/30 01:39:57;;;;;;;7.38;4.00;;;21.10;61.30;;;;;;9182990;19;20074;-64
2022/06/30 01:43:03;;;;;;;7.82;4.15;;;21.10;61.50;;;;;;9182292;19;20380;-63
2022/06/30 01:46:08;;;;;;;6.25;3.60;;;21.10;61.50;;;;;;9183952;19;20006;-64
2022/06/30 01:49:13;;;;;;;8.10;4.28;;;21.00;61.50;;;;;;9183338;19;20014;-66
2022/06/30 01:52:18;;;;;;;5.53;3.97;;;21.00;61.50;;;;;;9182300;19;20014;-63
2022/06/30 01:55:26;;;;;;;7.10;4.20;;;21.00;61.60;;;;;;9180476;19;20014;-65
2022/06/30 01:58:31;;;;;;;7.55;4.18;;;20.90;61.70;;;;;;9182491;19;20025;-65
2022/06/30 02:01:36;;;;;;;5.80;4.43;;;20.90;61.80;;;;;;9182761;19;20355;-65
2022/06/30 02:04:51;;;;;;;6.80;4.40;;;20.90;61.80;;;;;;9179762;19;20022;-63
2022/06/30 02:07:56;;;;;;;9.98;4.90;;;20.90;61.90;;;;;;9182018;19;20011;-63
2022/06/30 02:11:04;;;;;;;8.15;4.45;;;20.80;61.90;;;;;;9180769;19;20019;-64
2022/06/30 02:14:09;;;;;;;5.45;4.13;;;20.80;62.10;;;;;;9181943;19;20018;-64
2022/06/30 02:17:14;;;;;;;6.57;4.50;;;20.80;62.20;;;;;;9179060;19;20372;-64
2022/06/30 02:20:21;;;;;;;8.20;4.32;;;20.70;62.20;;;;;;9181413;19;20018;-63
2022/06/30 02:23:26;;;;;;;7.20;4.90;;;20.70;62.30;;;;;;9181237;19;20015;-64
2022/06/30 02:26:33;;;;;;;7.40;4.28;;;20.60;62.40;;;;;;9181570;19;20019;-65
2022/06/30 02:29:38;;;;;;;9.38;4.95;;;20.60;62.60;;;;;;9182003;19;20464;-65
2022/06/30 02:32:44;;;;;;;6.03;4.47;;;20.60;62.60;;;;;;9180503;19;20010;-64
2022/06/30 02:35:49;;;;;;;5.22;4.55;;;20.50;62.60;;;;;;9179471;19;20014;-64
2022/06/30 02:38:54;;;;;;;5.78;4.22;;;20.50;62.70;;;;;;9182012;19;20014;-65
2022/06/30 02:42:01;;;;;;;6.47;4.57;;;20.40;62.80;;;;;;9181253;19;20007;-65
2022/06/30 02:45:08;;;;;;;7.07;4.72;;;20.40;63.00;;;;;;9181234;19;20483;-64
2022/06/30 02:48:13;;;;;;;7.45;4.88;;;20.40;63.00;;;;;;9180700;19;20499;-66
2022/06/30 02:51:18;;;;;;;8.95;4.30;;;20.30;63.10;;;;;;9182142;19;20015;-64
2022/06/30 02:54:23;;;;;;;7.70;4.55;;;20.30;63.20;;;;;;9181458;19;20017;-64
2022/06/30 02:57:31;;;;;;;6.05;4.53;;;20.20;63.20;;;;;;9178726;19;20011;-65
2022/06/30 03:00:36;;;;;;;6.15;4.15;;;20.20;63.40;;;;;;9181229;19;20011;-64
2022/06/30 03:03:41;;;;;;;8.18;5.05;;;20.20;63.40;;;;;;9180983;19;20011;-64
2022/06/30 03:06:46;;;;;;;6.18;4.60;;;20.20;63.60;;;;;;9180746;19;20348;-63
2022/06/30 03:09:52;;;;;;;5.38;4.60;;;20.20;63.60;;;;;;9179228;19;20030;-66
2022/06/30 03:13:02;;;;;;;6.18;5.18;;;20.20;63.80;;;;;;9178374;19;20048;-63
2022/06/30 03:16:08;;;;;;;6.20;4.80;;;20.10;63.90;;;;;;9175962;19;20022;-63
2022/06/30 03:19:13;;;;;;;7.75;4.95;;;20.10;63.90;;;;;;9178584;19;20019;-63
2022/06/30 03:22:18;;;;;;;8.52;4.75;;;20.10;64.00;;;;;;9180854;19;20029;-63
2022/06/30 03:25:23;;;;;;;7.88;5.05;;;20.10;64.10;;;;;;9179323;19;20022;-65
2022/06/30 03:28:31;;;;;;;6.32;4.80;;;20.10;64.10;;;;;;9179501;19;20111;-64
2022/06/30 03:31:37;;;;;;;5.13;4.60;;;20.00;64.20;;;;;;9178356;19;20018;-64
2022/06/30 03:34:42;;;;;;;7.10;4.88;;;20.00;64.30;;;;;;9180061;19;20463;-64
2022/06/30 03:37:48;;;;;;;6.90;5.50;;;20.00;64.30;;;;;;9176375;19;20029;-64
2022/06/30 03:40:53;;;;;;;8.27;5.38;;;20.00;64.40;;;;;;9178006;19;20025;-64
2022/06/30 03:44:01;;;;;;;10.00;4.95;;;20.00;64.60;;;;;;9176845;19;20021;-64
2022/06/30 03:47:06;;;;;;;9.15;5.32;;;19.90;64.60;;;;;;9179066;19;20042;-64
2022/06/30 03:50:12;;;;;;;7.03;5.40;;;19.90;64.60;;;;;;9179818;19;20419;-64
2022/06/30 03:53:17;;;;;;;10.98;5.90;;;19.90;64.70;;;;;;9179524;19;20483;-64
2022/06/30 03:56:22;;;;;;;14.23;5.32;;;19.90;64.80;;;;;;9175888;19;20048;-64
2022/06/30 03:59:29;;;;;;;7.43;5.25;;;19.90;64.90;;;;;;9183958;19;20776;-64
2022/06/30 04:02:35;;;;;;;10.65;5.40;;;19.90;65.10;;;;;;9182406;19;20050;-64
2022/06/30 04:05:40;;;;;;;9.73;5.03;;;19.80;65.00;;;;;;9182832;19;20010;-64
2022/06/30 04:08:45;;;;;;;7.45;5.57;;;19.80;65.10;;;;;;9186952;19;20979;-64
2022/06/30 04:11:50;;;;;;;9.57;5.75;;;19.80;65.10;;;;;;9185673;19;20353;-63
2022/06/30 04:14:58;;;;;;;7.15;5.20;;;19.80;65.20;;;;;;9187436;19;20018;-63
2022/06/30 04:18:03;;;;;;;5.95;4.80;;;19.80;65.40;;;;;;9179856;19;20022;-64
2022/06/30 04:21:08;;;;;;;7.78;5.30;;;19.80;65.40;;;;;;9187008;19;20018;-64
2022/06/30 04:24:13;;;;;;;6.50;4.65;;;19.80;65.50;;;;;;9185020;19;20020;-63
2022/06/30 04:27:18;;;;;;;9.18;5.13;;;19.80;65.60;;;;;;9185487;19;20356;-64
2022/06/30 04:33:43;;;;;;;6.63;5.40;;;19.70;65.80;;;;;;9184263;19;20011;-64
2022/06/30 04:36:48;;;;;;;7.97;5.47;;;19.70;65.80;;;;;;9186014;19;20022;-63
2022/06/30 04:41:23;;;;;;;11.35;5.78;;;19.70;66.00;;;;;;9184441;19;20018;-65
2022/06/30 04:43:16;;;;;;;7.72;5.68;;;19.70;66.00;;;;;;9185500;19;20360;-65
2022/06/30 04:46:24;;;;;;;7.45;5.43;;;19.70;66.10;;;;;;9184797;19;20022;-63
2022/06/30 04:49:29;;;;;;;7.55;5.55;;;19.70;66.30;;;;;;9184444;19;20800;-63
2022/06/30 04:52:35;;;;;;;10.68;6.35;;;19.70;66.20;;;;;;9184336;19;20015;-64
2022/06/30 04:55:42;;;;;;;9.52;5.40;;;19.70;66.30;;;;;;9184618;19;20018;-65
2022/06/30 04:58:47;;;;;;;10.35;6.45;;;19.70;66.40;;;;;;9181412;19;20029;-65
2022/06/30 05:01:55;;;;;;;6.93;5.53;;;19.70;66.50;;;;;;9184179;19;20015;-66
2022/06/30 05:05:02;;;;;;;8.05;6.15;;;19.70;66.70;;;;;;9183300;19;20018;-64
2022/06/30 05:08:07;;;;;;;9.05;5.88;;;19.70;66.70;;;;;;9183129;19;20021;-65
2022/06/30 05:11:12;;;;;;;8.50;6.88;;;19.70;66.90;;;;;;9185107;19;20460;-65
2022/06/30 05:14:17;;;;;;;8.73;5.90;;;19.80;67.00;;;;;;9182012;19;20098;-65
2022/06/30 05:17:26;;;;;;;8.90;6.32;;;19.80;67.10;;;;;;9178941;19;20372;-64
2022/06/30 05:20:32;;;;;;;9.23;6.18;;;19.80;67.20;;;;;;9179205;19;20018;-64
2022/06/30 05:23:37;;;;;;;9.70;5.68;;;19.80;67.20;;;;;;9178969;19;20014;-64
2022/06/30 05:26:39;;;;;;;11.52;6.55;;;19.80;67.40;;;;;;9177458;19;20022;-66
2022/06/30 05:29:44;;;;;;;11.02;6.25;;;19.90;67.50;;;;;;9178350;19;20014;-66
2022/06/30 05:32:52;;;;;;;10.07;6.90;;;19.90;67.70;;;;;;9178653;19;20045;-65
2022/06/30 05:35:57;;;;;;;9.43;6.70;;;19.90;67.80;;;;;;9178469;19;20060;-65
2022/06/30 05:39:02;;;;;;;9.95;7.15;;;20.00;67.80;;;;;;9179554;19;20010;-65
2022/06/30 05:42:08;;;;;;;9.25;6.38;;;20.00;67.90;;;;;;9181369;19;20483;-64
2022/06/30 05:45:13;;;;;;;12.00;7.35;;;20.10;68.00;;;;;;9183135;19;20006;-65
2022/06/30 05:48:21;;;;;;;15.60;8.18;;;20.20;68.20;;;;;;9182625;19;20021;-63
2022/06/30 05:51:26;;;;;;;12.82;7.38;;;20.30;68.40;;;;;;9176522;19;20014;-68
2022/06/30 05:54:32;;;;;;;17.20;7.32;;;20.40;68.30;;;;;;9173551;19;20030;-68
2022/06/30 05:57:48;;;;;;;9.85;7.38;;;20.60;68.40;;;;;;9177981;19;20025;-67
2022/06/30 06:00:53;;;;;;;7.80;6.70;;;20.70;69.00;;;;;;9179290;19;20022;-67
2022/06/30 06:04:01;;;;;;;9.13;6.80;;;20.90;68.40;;;;;;9177272;19;20022;-66
2022/06/30 06:07:10;;;;;;;11.70;7.10;;;21.10;68.50;;;;;;9179902;19;20010;-67
2022/06/30 06:10:19;;;;;;;8.98;7.20;;;21.20;68.30;;;;;;9180942;19;20025;-65
2022/06/30 06:13:24;;;;;;;14.73;6.57;;;21.40;68.30;;;;;;9180567;19;20456;-65
2022/06/30 06:16:29;;;;;;;11.82;7.32;;;21.60;68.20;;;;;;9176542;19;20015;-64
2022/06/30 06:19:36;;;;;;;11.18;7.10;;;21.70;68.20;;;;;;9179576;19;20391;-65
2022/06/30 06:22:42;;;;;;;11.95;7.63;;;21.90;68.30;;;;;;9177423;19;20030;-66
2022/06/30 06:25:47;;;;;;;9.30;6.60;;;22.10;68.10;;;;;;9177381;19;20019;-66
2022/06/30 06:32:10;;;;;;;17.60;7.35;;;22.50;68.00;;;;;;9177469;19;20021;-66
2022/06/30 06:35:18;;;;;;;11.68;7.25;;;22.70;68.00;;;;;;9178203;19;20021;-66
2022/06/30 06:38:23;;;;;;;17.73;8.45;;;22.90;67.90;;;;;;9176589;19;20019;-64
2022/06/30 06:41:28;;;;;;;9.27;7.63;;;23.10;67.80;;;;;;9177430;19;20018;-67
2022/06/30 06:44:33;;;;;;;13.15;7.80;;;23.30;67.70;;;;;;9176903;19;20337;-66
2022/06/30 06:47:38;;;;;;;14.30;8.00;;;23.40;67.50;;;;;;9178921;19;20026;-66
2022/06/30 06:50:46;;;;;;;10.07;7.88;;;23.60;67.50;;;;;;9171111;19;20014;-65
2022/06/30 06:53:51;;;;;;;12.32;8.65;;;23.80;67.40;;;;;;9176879;19;20018;-65
2022/06/30 06:56:56;;;;;;;11.50;8.15;;;24.00;67.30;;;;;;9174596;19;20476;-64
2022/06/30 07:00:01;;;;;;;16.13;8.10;;;24.20;67.20;;;;;;9169000;19;20022;-64
2022/06/30 07:03:06;;;;;;;17.42;8.75;;;24.50;67.10;;;;;;9179260;19;20021;-66
2022/06/30 07:06:14;;;;;;;9.10;7.43;;;24.70;67.00;;;;;;9181605;19;20010;-64
2022/06/30 07:09:19;;;;;;;12.70;8.23;;;24.90;66.80;;;;;;9180597;19;20330;-64
2022/06/30 07:12:24;;;;;;;15.20;8.48;;;25.10;66.70;;;;;;9178883;19;20377;-66
2022/06/30 07:15:32;;;;;;;15.65;9.00;;;25.30;66.50;;;;;;9179106;19;20010;-64
2022/06/30 07:18:37;;;;;;;12.90;8.63;;;25.50;66.40;;;;;;9173408;19;20014;-64
2022/06/30 07:21:44;;;;;;;12.98;9.05;;;25.60;66.10;;;;;;9180704;19;20014;-64
2022/06/30 07:24:50;;;;;;;11.43;8.40;;;25.80;66.00;;;;;;9179158;19;20017;-64
2022/06/30 07:27:55;;;;;;;16.00;9.35;;;26.00;65.90;;;;;;9178373;19;20407;-65
2022/06/30 07:31:00;;;;;;;12.23;9.20;;;26.20;65.90;;;;;;9181450;19;20038;-64
2022/06/30 07:34:05;;;;;;;14.93;9.13;;;26.40;65.70;;;;;;9187995;19;20745;-65
2022/06/30 07:37:13;;;;;;;21.52;9.20;;;26.60;65.60;;;;;;9187414;19;20041;-67
2022/06/30 07:40:18;;;;;;;15.75;10.38;;;26.80;65.40;;;;;;9187837;19;20519;-64
2022/06/30 07:43:23;;;;;;;14.18;10.07;;;27.00;65.10;;;;;;9187884;19;20033;-66
2022/06/30 07:46:28;;;;;;;15.15;9.45;;;27.30;64.80;;;;;;9186869;19;20352;-66
2022/06/30 07:49:38;;;;;;;16.65;9.60;;;27.40;64.60;;;;;;9188027;19;20018;-66
2022/06/30 07:52:46;;;;;;;18.70;10.43;;;27.60;64.30;;;;;;9187042;19;20502;-67
2022/06/30 07:55:51;;;;;;;14.20;10.07;;;27.80;64.10;;;;;;9186692;19;20015;-66
2022/06/30 07:58:56;;;;;;;16.33;10.40;;;28.00;63.90;;;;;;9184735;19;20015;-66
2022/06/30 08:02:01;;;;;;;20.13;10.63;;;28.20;63.80;;;;;;9188979;19;20014;-66
2022/06/30 08:05:07;;;;;;;16.05;10.18;;;28.40;63.50;;;;;;9183883;19;20018;-66
2022/06/30 08:08:14;;;;;;;17.80;10.57;;;28.50;63.10;;;;;;9185831;19;20344;-68
2022/06/30 08:11:20;;;;;;;14.50;9.68;;;28.70;62.90;;;;;;9186792;19;20011;-66
2022/06/30 08:14:26;;;;;;;17.10;9.45;;;28.80;62.80;;;;;;9188617;19;20050;-65
2022/06/30 08:17:32;;;;;;;14.07;9.98;;;29.00;62.60;;;;;;9182290;19;20030;-67
2022/06/30 08:20:37;;;;;;;14.10;10.50;;;29.10;62.40;;;;;;9188569;19;20025;-68
2022/06/30 08:23:45;;;;;;;18.85;9.90;;;29.20;62.10;;;;;;9187157;19;20352;-65
2022/06/30 08:26:50;;;;;;;21.23;10.05;;;29.30;61.80;;;;;;9185855;19;20387;-67
2022/06/30 08:29:55;;;;;;;12.52;9.38;;;29.50;61.80;;;;;;9186619;19;20486;-67
2022/06/30 08:33:00;;;;;;;19.27;9.88;;;29.60;61.60;;;;;;9184884;19;20022;-67
2022/06/30 08:36:05;;;;;;;15.10;9.88;;;29.80;61.40;;;;;;9185507;19;20585;-67
2022/06/30 08:42:33;;;;;;;17.98;10.95;;;30.00;60.90;;;;;;9183175;19;20022;-67
2022/06/30 08:45:38;;;;;;;15.52;10.15;;;30.20;60.80;;;;;;9184090;19;20018;-66
2022/06/30 08:48:43;;;;;;;19.50;10.93;;;30.30;60.60;;;;;;9187301;19;20018;-66
2022/06/30 08:51:49;;;;;;;16.17;10.43;;;30.50;60.50;;;;;;9186807;19;20360;-67
2022/06/30 08:54:58;;;;;;;14.45;8.80;;;30.60;60.30;;;;;;9186409;19;20014;-65
2022/06/30 08:58:05;;;;;;;17.15;10.32;;;30.70;60.00;;;;;;9184750;19;20014;-65
2022/06/30 09:01:10;;;;;;;14.57;9.90;;;30.90;59.70;;;;;;9186153;19;20010;-65
2022/06/30 09:04:16;;;;;;;15.02;9.30;;;31.00;59.50;;;;;;9184804;19;20018;-66
2022/06/30 09:07:21;;;;;;;19.85;9.88;;;31.10;59.20;;;;;;9184198;19;20025;-68
2022/06/30 09:10:31;;;;;;;13.23;5.80;;;31.20;59.00;;;;;;9184616;19;20019;-67
2022/06/30 09:13:44;;;;;;;8.85;5.70;;;31.40;58.70;;;;;;9184207;19;20475;-65
2022/06/30 09:16:54;;;;;;;10.68;5.82;;;31.50;58.00;;;;;;9182900;19;20030;-66
2022/06/30 09:20:01;;;;;;;13.75;6.97;;;31.60;57.80;;;;;;9183038;19;20427;-66
2022/06/30 09:23:23;;;;;;;17.00;7.32;;;31.70;57.70;;;;;;9185089;19;20542;-65
2022/06/30 09:26:30;;;;;;;11.20;5.30;;;31.80;57.20;;;;;;9184926;19;20353;-65
2022/06/30 09:29:35;;;;;;;9.13;5.63;;;31.90;57.20;;;;;;9185856;19;20014;-66
2022/06/30 09:33:09;;;;;;;11.15;6.05;;;32.00;57.00;;;;;;9183505;19;20015;-65
2022/06/30 09:36:24;;;;;;;13.18;5.22;;;32.10;56.60;;;;;;9184349;19;20351;-68
2022/06/30 09:39:35;;;;;;;14.50;4.88;;;32.20;56.20;;;;;;9181151;19;20042;-67
2022/06/30 09:42:47;;;;;;;9.52;4.93;;;32.30;56.40;;;;;;9182761;19;20029;-67
2022/06/30 09:46:00;;;;;;;13.52;4.32;;;32.40;55.80;;;;;;9184409;19;20014;-69
2022/06/30 09:49:06;;;;;;;6.72;4.63;;;32.50;55.80;;;;;;9184779;19;20484;-67
2022/06/30 09:52:19;;;;;;;6.57;4.07;;;32.60;55.50;;;;;;9184462;19;20712;-68
2022/06/30 09:55:24;;;;;;;8.30;3.83;;;32.70;55.10;;;;;;9180812;19;20014;-68
2022/06/30 09:58:42;;;;;;;7.07;3.92;;;32.80;55.10;;;;;;9181935;19;20017;-65
2022/06/30 10:01:55;;;;;;;11.35;4.47;;;32.90;54.50;;;;;;9181877;19;20356;-65
2022/06/30 10:05:01;;;;;;;7.55;3.83;;;33.00;54.10;;;;;;9179969;19;20412;-65
2022/06/30 10:08:07;;;;;;;5.95;3.65;;;33.10;54.30;;;;;;9183014;19;20015;-65
2022/06/30 10:11:13;;;;;;;4.63;3.42;;;33.10;53.90;;;;;;9182185;19;20029;-66
2022/06/30 10:14:21;;;;;;;7.05;3.30;;;33.20;53.70;;;;;;9183101;19;20018;-66
2022/06/30 10:17:29;;;;;;;4.68;2.95;;;33.30;53.40;;;;;;9178469;19;20010;-66
2022/06/30 10:20:38;;;;;;;7.68;3.45;;;33.30;53.10;;;;;;9179903;19;20010;-68
2022/06/30 10:23:44;;;;;;;6.07;2.20;;;33.40;53.00;;;;;;9182334;19;20014;-67
2022/06/30 10:30:13;;;;;;;4.20;1.58;;;33.50;52.20;;;;;;9182465;19;20018;-66
2022/06/30 10:33:27;;;;;;;3.10;2.20;;;33.60;51.70;;;;;;9180242;19;20661;-66
2022/06/30 10:36:43;;;;;;;4.40;2.20;;;33.60;51.30;;;;;;9179938;19;20432;-67
2022/06/30 10:39:53;;;;;;;2.83;1.52;;;33.70;51.20;;;;;;9181867;19;20085;-65
2022/06/30 10:42:59;;;;;;;4.68;2.10;;;33.70;51.20;;;;;;9182387;19;20011;-66
2022/06/30 10:46:08;;;;;;;6.60;1.92;;;33.70;50.80;;;;;;9180859;19;20049;-65
2022/06/30 10:49:14;;;;;;;3.47;1.75;;;33.70;50.40;;;;;;9179166;19;20007;-67
2022/06/30 10:52:24;;;;;;;4.82;1.90;;;33.80;50.30;;;;;;9181262;19;20459;-67
2022/06/30 10:55:29;;;;;;;12.35;2.88;;;33.80;49.80;;;;;;9180163;19;20026;-65
2022/06/30 10:58:35;;;;;;;5.68;3.60;;;33.90;50.00;;;;;;9180236;19;20021;-68
2022/06/30 11:02:03;;;;;;;13.18;3.88;;;34.00;50.00;;;;;;9181328;19;20681;-65
2022/06/30 11:05:27;;;;;;;14.10;3.50;;;34.10;50.00;;;;;;9180247;19;20482;-66
2022/06/30 11:08:50;;;;;;;4.68;2.80;;;34.10;49.70;;;;;;9179418;19;20025;-68
2022/06/30 11:11:56;;;;;;;4.90;2.70;;;34.20;49.60;;;;;;9180503;19;20447;-69
2022/06/30 11:15:03;;;;;;;7.22;2.58;;;34.30;49.80;;;;;;9179839;19;20017;-67
2022/06/30 11:18:09;;;;;;;6.35;2.80;;;34.40;49.70;;;;;;9176903;19;20653;-66
2022/06/30 11:21:16;;;;;;;3.88;2.75;;;34.40;49.40;;;;;;9177420;19;20010;-67
2022/06/30 11:24:27;;;;;;;4.05;2.47;;;34.50;49.10;;;;;;9178809;19;20014;-65
2022/06/30 11:27:31;;;;;;;3.97;2.47;;;34.60;49.00;;;;;;9179331;19;20007;-66
2022/06/30 11:30:37;;;;;;;8.65;3.17;;;34.60;48.90;;;;;;9179624;19;20018;-66
2022/06/30 11:33:53;;;;;;;7.00;2.78;;;34.70;48.70;;;;;;9180287;19;20015;-66
2022/06/30 11:37:03;;;;;;;8.98;3.00;;;34.70;48.40;;;;;;9180389;19;20029;-66
2022/06/30 11:40:12;;;;;;;9.13;2.72;;;34.70;48.30;;;;;;9178636;19;20121;-65
2022/06/30 11:43:24;;;;;;;10.07;3.28;;;34.70;48.40;;;;;;9177571;19;20026;-64
2022/06/30 11:46:30;;;;;;;6.30;2.92;;;34.70;48.10;;;;;;9178763;19;20543;-65
2022/06/30 11:49:43;;;;;;;7.88;3.55;;;34.60;48.20;;;;;;9180661;19;20053;-65
2022/06/30 11:52:51;;;;;;;7.97;3.30;;;34.60;47.80;;;;;;9178129;19;20011;-66
2022/06/30 11:55:58;;;;;;;5.22;2.85;;;34.60;47.90;;;;;;9179905;19;20368;-71
2022/06/30 11:59:08;;;;;;;5.60;3.30;;;34.60;47.90;;;;;;9180030;19;20018;-66
2022/06/30 12:02:16;;;;;;;7.10;2.85;;;34.60;47.60;;;;;;9180140;19;20086;-67
2022/06/30 12:08:43;;;;;;;8.73;3.47;;;34.70;47.70;;;;;;9176497;19;20082;-68
2022/06/30 12:11:53;;;;;;;5.95;2.80;;;34.70;47.60;;;;;;9177668;19;20018;-66
2022/06/30 12:15:09;;;;;;;6.82;2.90;;;34.70;47.50;;;;;;9178294;19;20019;-65
2022/06/30 12:18:14;;;;;;;5.03;2.80;;;34.80;47.40;;;;;;9176114;19;20010;-66
2022/06/30 12:21:19;;;;;;;6.93;2.83;;;34.80;47.40;;;;;;9182450;19;20681;-66
2022/06/30 12:24:27;;;;;;;8.60;2.72;;;34.80;47.10;;;;;;9184696;19;20010;-65
2022/06/30 12:27:34;;;;;;;7.07;2.80;;;34.90;46.90;;;;;;9187229;19;20097;-67
2022/06/30 12:30:40;;;;;;;7.43;2.38;;;34.90;46.60;;;;;;9186762;19;20372;-66
2022/06/30 12:33:48;;;;;;;10.25;2.92;;;34.90;46.60;;;;;;9188404;19;20025;-66
2022/06/30 12:36:53;;;;;;;9.95;2.50;;;35.00;46.60;;;;;;9186876;19;20479;-66
2022/06/30 12:40:04;;;;;;;4.85;2.75;;;35.00;46.50;;;;;;9187084;19;20025;-66
2022/06/30 12:43:10;;;;;;;3.65;2.33;;;35.00;46.10;;;;;;9184540;19;20359;-66
2022/06/30 12:46:15;;;;;;;6.90;2.85;;;34.90;46.10;;;;;;9185051;19;20054;-67
2022/06/30 12:49:27;;;;;;;5.93;2.83;;;34.90;46.10;;;;;;9185942;19;20026;-67
2022/06/30 12:52:35;;;;;;;7.25;2.88;;;34.90;46.20;;;;;;9184028;19;20479;-66
2022/06/30 12:56:08;;;;;;;6.63;2.50;;;34.90;46.00;;;;;;9185781;19;20010;-68
2022/06/30 12:59:16;;;;;;;10.50;4.68;;;34.90;45.80;;;;;;9185230;19;20021;-68
2022/06/30 13:02:21;;;;;;;11.98;5.13;;;34.80;46.30;;;;;;9186154;19;20082;-67
2022/06/30 13:05:31;;;;;;;8.98;4.63;;;34.70;46.60;;;;;;9183011;19;20026;-67
2022/06/30 13:08:36;;;;;;;13.10;4.80;;;34.70;46.80;;;;;;9184773;19;20018;-65
2022/06/30 13:11:46;;;;;;;8.18;4.70;;;34.70;47.00;;;;;;9184939;19;20344;-66
2022/06/30 13:14:51;;;;;;;13.73;4.88;;;34.60;47.10;;;;;;9185594;19;20022;-65
2022/06/30 13:17:56;;;;;;;11.43;4.28;;;34.50;47.20;;;;;;9180889;19;20455;-68
2022/06/30 13:21:01;;;;;;;10.00;5.10;;;34.40;47.30;;;;;;9184595;19;20010;-67
2022/06/30 13:24:08;;;;;;;9.73;4.70;;;34.40;47.50;;;;;;9183977;19;20019;-67
2022/06/30 13:27:16;;;;;;;7.70;5.18;;;34.20;47.40;;;;;;9185668;19;20010;-66
2022/06/30 13:30:21;;;;;;;7.15;4.00;;;34.10;47.60;;;;;;9185613;19;20006;-66
2022/06/30 13:33:26;;;;;;;19.40;4.63;;;34.00;47.70;;;;;;9183920;19;20014;-63
2022/06/30 13:36:31;;;;;;;12.15;5.00;;;33.90;47.80;;;;;;9184339;19;20482;-63
2022/06/30 13:39:38;;;;;;;13.38;3.90;;;33.80;47.80;;;;;;9184572;19;20014;-67
2022/06/30 13:42:45;;;;;;;11.63;4.38;;;33.60;47.70;;;;;;9183471;19;20010;-66
2022/06/30 13:45:53;;;;;;;11.18;4.20;;;33.50;47.80;;;;;;9183761;19;20018;-68
2022/06/30 13:49:08;;;;;;;8.48;4.28;;;33.40;47.90;;;;;;9183194;19;20014;-67
2022/06/30 13:52:19;;;;;;;9.40;4.22;;;33.30;47.90;;;;;;9185046;19;20078;-68
2022/06/30 13:55:30;;;;;;;9.65;4.68;;;33.20;48.10;;;;;;9183685;19;20022;-67
2022/06/30 13:58:40;;;;;;;8.57;3.60;;;33.10;48.20;;;;;;9183296;19;20018;-66
2022/06/30 14:01:52;;;;;;;10.65;3.03;;;32.90;48.10;;;;;;9181776;19;20015;-67
2022/06/30 14:05:00;;;;;;;6.95;3.05;;;32.80;48.20;;;;;;9180085;19;20101;-68
2022/06/30 14:08:05;;;;;;;12.73;3.92;;;32.70;48.30;;;;;;9182301;19;20030;-68
2022/06/30 14:11:12;;;;;;;7.07;3.05;;;32.60;48.30;;;;;;9182049;19;20052;-66
2022/06/30 14:14:27;;;;;;;10.85;3.40;;;32.60;48.30;;;;;;9181986;19;20014;-68
2022/06/30 14:17:35;;;;;;;9.52;3.40;;;32.50;48.40;;;;;;9178830;19;20014;-67
2022/06/30 14:20:45;;;;;;;8.38;3.58;;;32.40;48.50;;;;;;9182075;19;20015;-65
2022/06/30 14:23:51;;;;;;;8.77;3.38;;;32.40;48.70;;;;;;9183051;19;20018;-67
2022/06/30 14:27:04;;;;;;;14.40;3.72;;;32.30;48.70;;;;;;9183470;19;20022;-67
2022/06/30 14:30:16;;;;;;;10.63;3.65;;;32.30;48.80;;;;;;9181345;19;20006;-69
2022/06/30 14:33:26;;;;;;;6.63;3.33;;;32.30;49.00;;;;;;9182817;19;20464;-67
2022/06/30 14:36:34;;;;;;;6.10;3.15;;;32.20;49.00;;;;;;9181767;19;20043;-67
2022/06/30 14:39:40;;;;;;;8.57;3.35;;;32.10;48.90;;;;;;9180811;19;20029;-65
2022/06/30 14:42:50;;;;;;;8.18;2.63;;;32.10;48.80;;;;;;9177336;19;20056;-67
2022/06/30 14:45:58;;;;;;;11.20;2.92;;;32.00;48.70;;;;;;9182068;19;20014;-68
2022/06/30 14:49:04;;;;;;;8.05;3.05;;;32.00;48.70;;;;;;9180770;19;20014;-65
2022/06/30 14:52:16;;;;;;;9.00;3.25;;;31.90;48.80;;;;;;9180549;19;20018;-66
2022/06/30 14:55:23;;;;;;;8.02;3.22;;;31.90;48.90;;;;;;9180018;19;20011;-71
2022/06/30 14:58:28;;;;;;;13.10;4.25;;;31.80;49.00;;;;;;9180343;19;20049;-70
2022/06/30 15:01:35;;;;;;;4.90;3.13;;;31.80;49.10;;;;;;9181089;19;20029;-70
2022/06/30 15:04:41;;;;;;;8.15;3.15;;;31.80;49.10;;;;;;9178489;19;20010;-71
2022/06/30 15:07:46;;;;;;;6.65;3.10;;;31.80;49.20;;;;;;9180821;19;20022;-69
2022/06/30 15:10:51;;;;;;;4.22;2.90;;;31.80;49.40;;;;;;9179838;19;20007;-69
2022/06/30 15:13:58;;;;;;;7.22;2.92;;;31.70;49.10;;;;;;9182464;19;20010;-69
2022/06/30 15:17:06;;;;;;;6.63;2.80;;;31.70;49.20;;;;;;9175871;19;20822;-68
2022/06/30 15:20:15;;;;;;;5.13;2.55;;;31.70;49.30;;;;;;9181948;19;20011;-68
2022/06/30 15:26:51;;;;;;;5.13;2.13;;;31.60;49.10;;;;;;9179553;19;20019;-68
2022/06/30 15:30:01;;;;;;;3.97;2.45;;;31.60;49.20;;;;;;9181943;19;20040;-67
2022/06/30 15:33:09;;;;;;;11.13;3.22;;;31.70;49.20;;;;;;9179663;19;20077;-70
2022/06/30 15:36:14;;;;;;;5.95;2.65;;;31.60;49.10;;;;;;9179750;19;20022;-69
2022/06/30 15:39:19;;;;;;;7.68;3.10;;;31.70;49.10;;;;;;9169183;19;20010;-69
2022/06/30 15:42:25;;;;;;;6.35;2.80;;;31.60;49.10;;;;;;9176395;19;20026;-69
2022/06/30 15:45:31;;;;;;;8.32;2.92;;;31.60;49.10;;;;;;9181360;19;20467;-68
2022/06/30 15:48:38;;;;;;;6.07;2.50;;;31.50;49.20;;;;;;9180891;19;20355;-68
2022/06/30 15:51:43;;;;;;;5.00;2.58;;;31.50;49.30;;;;;;9179175;19;20364;-67
2022/06/30 15:54:49;;;;;;;10.50;3.33;;;31.40;49.40;;;;;;9182988;19;20022;-68
2022/06/30 15:57:54;;;;;;;9.60;3.80;;;31.30;49.70;;;;;;9184628;19;20014;-69
2022/06/30 16:00:59;;;;;;;8.23;2.65;;;31.30;50.00;;;;;;9186353;19;20464;-69
2022/06/30 16:04:07;;;;;;;11.77;3.55;;;31.20;50.10;;;;;;9182998;19;20018;-67
2022/06/30 16:07:12;;;;;;;9.63;2.80;;;31.30;50.20;;;;;;9184797;19;20014;-68
2022/06/30 16:10:17;;;;;;;4.65;2.72;;;31.20;50.20;;;;;;9183543;19;20010;-68
2022/06/30 16:13:22;;;;;;;6.50;3.03;;;31.20;50.20;;;;;;9181898;19;20011;-71
2022/06/30 16:16:28;;;;;;;6.05;2.50;;;31.20;50.30;;;;;;9179568;19;20015;-69
2022/06/30 16:19:36;;;;;;;16.67;3.22;;;31.10;50.30;;;;;;9183325;19;20025;-69
2022/06/30 16:22:42;;;;;;;7.03;3.00;;;31.10;50.40;;;;;;9180818;19;20026;-70
2022/06/30 16:25:47;;;;;;;9.70;3.03;;;31.00;50.40;;;;;;9183370;19;20026;-68
2022/06/30 16:28:53;;;;;;;9.45;3.30;;;31.00;50.50;;;;;;9182554;19;20018;-67
2022/06/30 16:31:58;;;;;;;7.50;3.47;;;30.90;50.60;;;;;;9184791;19;20383;-70